sim
Sign-in with your pilot id or email,
or register
Callsign
Passwort

Schedule Details

Flight Number: DLH1660
Departure: Munich Airport (EDDM) at 13:45
Arrival: Timisoara Traian Vuia International Airport (LRTR) at 15:10
Route: Lufthansa Passenger Schedule. Enter filed route here before submitting Pirep.

Weather Information
Getting current METAR information for EDDM 240320Z VRB02KT CAVOK 09/09 Q1009 NOSIG
Getting current METAR information for LRTR 240330Z 11006KT CAVOK 14/14 Q1011 R11/190095

Schedule Frequency

Route Map